sensor_id;sensor_type;location;lat;lon;timestamp;P1;durP1;ratioP1;P2;durP2;ratioP2
58918;SDS011;44704;50.122;19.932;2022-11-15T00:01:01;25.10;;;12.80;;
58918;SDS011;44704;50.122;19.932;2022-11-15T00:03:50;26.40;;;13.20;;
58918;SDS011;44704;50.122;19.932;2022-11-15T00:06:36;31.70;;;12.70;;
58918;SDS011;44704;50.122;19.932;2022-11-15T00:09:25;21.70;;;11.90;;
58918;SDS011;44704;50.122;19.932;2022-11-15T00:12:10;25.40;;;11.80;;
58918;SDS011;44704;50.122;19.932;2022-11-15T00:14:56;20.40;;;11.70;;
58918;SDS011;44704;50.122;19.932;2022-11-15T00:17:44;23.30;;;11.40;;
58918;SDS011;44704;50.122;19.932;2022-11-15T00:20:34;23.90;;;11.40;;
58918;SDS011;44704;50.122;19.932;2022-11-15T00:23:19;19.30;;;10.10;;
58918;SDS011;44704;50.122;19.932;2022-11-15T00:26:12;21.70;;;11.70;;
58918;SDS011;44704;50.122;19.932;2022-11-15T00:28:58;23.40;;;11.60;;
58918;SDS011;44704;50.122;19.932;2022-11-15T00:31:44;21.90;;;12.00;;
58918;SDS011;44704;50.122;19.932;2022-11-15T00:34:30;19.30;;;10.70;;
58918;SDS011;44704;50.122;19.932;2022-11-15T00:37:16;20.70;;;11.00;;
58918;SDS011;44704;50.122;19.932;2022-11-15T00:40:01;22.20;;;11.40;;
58918;SDS011;44704;50.122;19.932;2022-11-15T00:42:47;22.20;;;11.40;;
58918;SDS011;44704;50.122;19.932;2022-11-15T00:45:32;22.30;;;11.80;;
58918;SDS011;44704;50.122;19.932;2022-11-15T00:48:28;23.60;;;12.40;;
58918;SDS011;44704;50.122;19.932;2022-11-15T00:51:14;20.90;;;11.60;;
58918;SDS011;44704;50.122;19.932;2022-11-15T00:54:00;19.90;;;10.80;;
58918;SDS011;44704;50.122;19.932;2022-11-15T00:56:46;18.50;;;10.40;;
58918;SDS011;44704;50.122;19.932;2022-11-15T00:59:32;18.40;;;9.90;;
58918;SDS011;44704;50.122;19.932;2022-11-15T01:02:18;21.00;;;10.50;;
58918;SDS011;44704;50.122;19.932;2022-11-15T01:05:03;23.80;;;11.80;;
58918;SDS011;44704;50.122;19.932;2022-11-15T01:07:52;25.70;;;11.00;;
58918;SDS011;44704;50.122;19.932;2022-11-15T01:10:39;21.50;;;11.90;;
58918;SDS011;44704;50.122;19.932;2022-11-15T01:13:26;21.50;;;12.30;;
58918;SDS011;44704;50.122;19.932;2022-11-15T01:16:14;19.90;;;11.20;;
58918;SDS011;44704;50.122;19.932;2022-11-15T01:19:03;19.30;;;11.20;;
58918;SDS011;44704;50.122;19.932;2022-11-15T01:21:49;22.70;;;12.10;;
58918;SDS011;44704;50.122;19.932;2022-11-15T01:24:37;22.00;;;12.10;;
58918;SDS011;44704;50.122;19.932;2022-11-15T01:27:23;22.60;;;12.30;;
58918;SDS011;44704;50.122;19.932;2022-11-15T01:30:09;20.80;;;11.30;;
58918;SDS011;44704;50.122;19.932;2022-11-15T01:32:55;17.60;;;10.50;;
58918;SDS011;44704;50.122;19.932;2022-11-15T01:35:41;23.10;;;11.40;;
58918;SDS011;44704;50.122;19.932;2022-11-15T01:38:27;18.60;;;10.50;;
58918;SDS011;44704;50.122;19.932;2022-11-15T01:41:14;22.50;;;10.00;;
58918;SDS011;44704;50.122;19.932;2022-11-15T01:47:33;16.60;;;9.70;;
58918;SDS011;44704;50.122;19.932;2022-11-15T01:50:24;20.50;;;10.70;;
58918;SDS011;44704;50.122;19.932;2022-11-15T01:53:15;16.70;;;9.70;;
58918;SDS011;44704;50.122;19.932;2022-11-15T01:56:02;17.90;;;9.60;;
58918;SDS011;44704;50.122;19.932;2022-11-15T01:58:52;19.00;;;10.00;;
58918;SDS011;44704;50.122;19.932;2022-11-15T02:01:41;18.00;;;9.60;;
58918;SDS011;44704;50.122;19.932;2022-11-15T02:04:28;20.60;;;10.10;;
58918;SDS011;44704;50.122;19.932;2022-11-15T02:07:17;20.70;;;11.10;;
58918;SDS011;44704;50.122;19.932;2022-11-15T02:10:11;26.20;;;11.00;;
58918;SDS011;44704;50.122;19.932;2022-11-15T02:13:07;20.70;;;11.10;;
58918;SDS011;44704;50.122;19.932;2022-11-15T02:15:58;24.30;;;10.80;;
58918;SDS011;44704;50.122;19.932;2022-11-15T02:18:53;20.20;;;10.20;;
58918;SDS011;44704;50.122;19.932;2022-11-15T02:22:09;20.40;;;10.90;;
58918;SDS011;44704;50.122;19.932;2022-11-15T02:25:23;19.20;;;9.90;;
58918;SDS011;44704;50.122;19.932;2022-11-15T02:31:20;17.10;;;9.50;;
58918;SDS011;44704;50.122;19.932;2022-11-15T02:37:15;16.50;;;8.70;;
58918;SDS011;44704;50.122;19.932;2022-11-15T02:43:08;17.10;;;9.70;;
58918;SDS011;44704;50.122;19.932;2022-11-15T02:46:19;20.40;;;9.70;;
58918;SDS011;44704;50.122;19.932;2022-11-15T02:49:33;17.60;;;10.60;;
58918;SDS011;44704;50.122;19.932;2022-11-15T02:52:21;19.00;;;10.20;;
58918;SDS011;44704;50.122;19.932;2022-11-15T02:55:30;19.80;;;12.20;;
58918;SDS011;44704;50.122;19.932;2022-11-15T03:05:00;23.20;;;11.20;;
58918;SDS011;44704;50.122;19.932;2022-11-15T03:07:28;19.70;;;10.20;;
58918;SDS011;44704;50.122;19.932;2022-11-15T03:19:03;24.10;;;12.40;;
58918;SDS011;44704;50.122;19.932;2022-11-15T03:22:03;23.40;;;12.20;;
58918;SDS011;44704;50.122;19.932;2022-11-15T03:24:55;25.20;;;13.00;;
58918;SDS011;44704;50.122;19.932;2022-11-15T03:27:46;29.30;;;13.70;;
58918;SDS011;44704;50.122;19.932;2022-11-15T03:30:36;25.40;;;12.20;;
58918;SDS011;44704;50.122;19.932;2022-11-15T03:33:24;27.20;;;14.50;;
58918;SDS011;44704;50.122;19.932;2022-11-15T03:36:11;27.40;;;14.70;;
58918;SDS011;44704;50.122;19.932;2022-11-15T03:38:58;28.80;;;14.30;;
58918;SDS011;44704;50.122;19.932;2022-11-15T03:48:16;31.90;;;14.90;;
58918;SDS011;44704;50.122;19.932;2022-11-15T03:51:03;28.90;;;14.40;;
58918;SDS011;44704;50.122;19.932;2022-11-15T03:53:50;29.70;;;14.30;;
58918;SDS011;44704;50.122;19.932;2022-11-15T03:56:36;32.30;;;16.10;;
58918;SDS011;44704;50.122;19.932;2022-11-15T03:59:22;27.70;;;14.60;;
58918;SDS011;44704;50.122;19.932;2022-11-15T04:02:08;31.80;;;15.50;;
58918;SDS011;44704;50.122;19.932;2022-11-15T04:04:54;25.20;;;13.90;;
58918;SDS011;44704;50.122;19.932;2022-11-15T04:07:40;28.20;;;15.50;;
58918;SDS011;44704;50.122;19.932;2022-11-15T04:10:26;33.30;;;16.10;;
58918;SDS011;44704;50.122;19.932;2022-11-15T04:13:11;29.30;;;15.40;;
58918;SDS011;44704;50.122;19.932;2022-11-15T04:15:56;23.90;;;13.80;;
58918;SDS011;44704;50.122;19.932;2022-11-15T04:18:42;29.70;;;16.00;;
58918;SDS011;44704;50.122;19.932;2022-11-15T04:21:27;27.20;;;15.00;;
58918;SDS011;44704;50.122;19.932;2022-11-15T04:24:32;26.50;;;14.40;;
58918;SDS011;44704;50.122;19.932;2022-11-15T04:27:18;31.20;;;16.20;;
58918;SDS011;44704;50.122;19.932;2022-11-15T04:30:04;29.40;;;16.40;;
58918;SDS011;44704;50.122;19.932;2022-11-15T04:32:50;28.10;;;14.60;;
58918;SDS011;44704;50.122;19.932;2022-11-15T04:35:36;32.30;;;16.10;;
58918;SDS011;44704;50.122;19.932;2022-11-15T04:38:22;26.50;;;14.60;;
58918;SDS011;44704;50.122;19.932;2022-11-15T04:41:08;32.10;;;17.50;;
58918;SDS011;44704;50.122;19.932;2022-11-15T04:43:56;29.70;;;14.80;;
58918;SDS011;44704;50.122;19.932;2022-11-15T04:46:41;31.60;;;16.40;;
58918;SDS011;44704;50.122;19.932;2022-11-15T04:49:27;28.40;;;16.00;;
58918;SDS011;44704;50.122;19.932;2022-11-15T04:52:13;30.70;;;14.40;;
58918;SDS011;44704;50.122;19.932;2022-11-15T04:54:58;32.10;;;15.80;;
58918;SDS011;44704;50.122;19.932;2022-11-15T04:57:44;35.00;;;17.60;;
58918;SDS011;44704;50.122;19.932;2022-11-15T05:00:29;34.10;;;15.80;;
58918;SDS011;44704;50.122;19.932;2022-11-15T05:03:15;27.50;;;15.00;;
58918;SDS011;44704;50.122;19.932;2022-11-15T05:06:20;29.60;;;16.10;;
58918;SDS011;44704;50.122;19.932;2022-11-15T05:09:06;30.50;;;15.20;;
58918;SDS011;44704;50.122;19.932;2022-11-15T05:11:51;28.00;;;14.90;;
58918;SDS011;44704;50.122;19.932;2022-11-15T05:14:37;27.20;;;14.80;;
58918;SDS011;44704;50.122;19.932;2022-11-15T05:17:22;27.50;;;14.50;;
58918;SDS011;44704;50.122;19.932;2022-11-15T05:20:08;27.10;;;13.90;;
58918;SDS011;44704;50.122;19.932;2022-11-15T05:22:54;26.60;;;13.50;;
58918;SDS011;44704;50.122;19.932;2022-11-15T05:25:41;27.80;;;14.00;;
58918;SDS011;44704;50.122;19.932;2022-11-15T05:28:26;24.40;;;13.90;;
58918;SDS011;44704;50.122;19.932;2022-11-15T05:31:13;23.70;;;13.10;;
58918;SDS011;44704;50.122;19.932;2022-11-15T05:34:00;19.40;;;11.30;;
58918;SDS011;44704;50.122;19.932;2022-11-15T05:36:49;22.10;;;12.30;;
58918;SDS011;44704;50.122;19.932;2022-11-15T05:39:35;18.70;;;11.00;;
58918;SDS011;44704;50.122;19.932;2022-11-15T05:42:21;21.70;;;12.50;;
58918;SDS011;44704;50.122;19.932;2022-11-15T05:45:07;24.00;;;13.10;;
58918;SDS011;44704;50.122;19.932;2022-11-15T05:47:54;24.20;;;13.40;;
58918;SDS011;44704;50.122;19.932;2022-11-15T05:50:43;22.20;;;13.30;;
58918;SDS011;44704;50.122;19.932;2022-11-15T05:53:31;25.10;;;14.50;;
58918;SDS011;44704;50.122;19.932;2022-11-15T05:56:18;23.90;;;13.80;;
58918;SDS011;44704;50.122;19.932;2022-11-15T05:59:04;23.20;;;12.90;;
58918;SDS011;44704;50.122;19.932;2022-11-15T06:01:51;21.50;;;12.30;;
58918;SDS011;44704;50.122;19.932;2022-11-15T06:04:36;23.80;;;12.50;;
58918;SDS011;44704;50.122;19.932;2022-11-15T06:07:22;24.30;;;13.60;;
58918;SDS011;44704;50.122;19.932;2022-11-15T06:10:08;24.40;;;13.50;;
58918;SDS011;44704;50.122;19.932;2022-11-15T06:12:57;21.20;;;12.40;;
58918;SDS011;44704;50.122;19.932;2022-11-15T06:15:44;21.80;;;11.20;;
58918;SDS011;44704;50.122;19.932;2022-11-15T06:18:33;23.50;;;11.50;;
58918;SDS011;44704;50.122;19.932;2022-11-15T06:21:20;19.80;;;11.30;;
58918;SDS011;44704;50.122;19.932;2022-11-15T06:24:06;17.00;;;11.10;;
58918;SDS011;44704;50.122;19.932;2022-11-15T06:26:52;13.60;;;9.00;;
58918;SDS011;44704;50.122;19.932;2022-11-15T06:29:38;18.00;;;10.10;;
58918;SDS011;44704;50.122;19.932;2022-11-15T06:32:23;16.00;;;9.50;;
58918;SDS011;44704;50.122;19.932;2022-11-15T06:35:10;19.60;;;10.60;;
58918;SDS011;44704;50.122;19.932;2022-11-15T06:37:55;18.30;;;10.90;;
58918;SDS011;44704;50.122;19.932;2022-11-15T06:40:46;19.10;;;11.00;;
58918;SDS011;44704;50.122;19.932;2022-11-15T06:43:32;20.00;;;10.50;;
58918;SDS011;44704;50.122;19.932;2022-11-15T06:46:19;15.50;;;9.80;;
58918;SDS011;44704;50.122;19.932;2022-11-15T06:49:04;19.40;;;10.20;;
58918;SDS011;44704;50.122;19.932;2022-11-15T06:51:50;20.30;;;10.90;;
58918;SDS011;44704;50.122;19.932;2022-11-15T06:54:36;21.30;;;10.50;;
58918;SDS011;44704;50.122;19.932;2022-11-15T06:57:21;20.40;;;11.20;;
58918;SDS011;44704;50.122;19.932;2022-11-15T07:00:07;19.70;;;12.30;;
58918;SDS011;44704;50.122;19.932;2022-11-15T07:02:54;20.30;;;10.80;;
58918;SDS011;44704;50.122;19.932;2022-11-15T07:05:39;21.30;;;10.80;;
58918;SDS011;44704;50.122;19.932;2022-11-15T07:08:26;15.80;;;10.20;;
58918;SDS011;44704;50.122;19.932;2022-11-15T07:11:14;17.00;;;10.40;;
58918;SDS011;44704;50.122;19.932;2022-11-15T07:14:00;19.40;;;10.90;;
58918;SDS011;44704;50.122;19.932;2022-11-15T07:16:56;19.50;;;11.00;;
58918;SDS011;44704;50.122;19.932;2022-11-15T07:19:43;18.90;;;10.90;;
58918;SDS011;44704;50.122;19.932;2022-11-15T07:22:29;21.50;;;11.80;;
58918;SDS011;44704;50.122;19.932;2022-11-15T07:25:16;20.00;;;12.20;;
58918;SDS011;44704;50.122;19.932;2022-11-15T07:28:03;19.30;;;11.60;;
58918;SDS011;44704;50.122;19.932;2022-11-15T07:30:49;23.10;;;13.00;;
58918;SDS011;44704;50.122;19.932;2022-11-15T07:33:38;28.10;;;13.80;;
58918;SDS011;44704;50.122;19.932;2022-11-15T07:36:24;25.30;;;13.90;;
58918;SDS011;44704;50.122;19.932;2022-11-15T07:39:10;27.90;;;14.90;;
58918;SDS011;44704;50.122;19.932;2022-11-15T07:41:57;28.00;;;14.70;;
58918;SDS011;44704;50.122;19.932;2022-11-15T07:45:02;25.40;;;13.70;;
58918;SDS011;44704;50.122;19.932;2022-11-15T07:47:49;25.10;;;13.60;;
58918;SDS011;44704;50.122;19.932;2022-11-15T07:50:35;23.80;;;13.40;;
58918;SDS011;44704;50.122;19.932;2022-11-15T07:53:21;22.00;;;13.30;;
58918;SDS011;44704;50.122;19.932;2022-11-15T07:56:06;24.10;;;13.70;;
58918;SDS011;44704;50.122;19.932;2022-11-15T07:58:53;27.30;;;13.00;;
58918;SDS011;44704;50.122;19.932;2022-11-15T08:01:39;21.80;;;12.20;;
58918;SDS011;44704;50.122;19.932;2022-11-15T08:04:24;23.20;;;13.00;;
58918;SDS011;44704;50.122;19.932;2022-11-15T08:07:10;25.10;;;13.30;;
58918;SDS011;44704;50.122;19.932;2022-11-15T08:09:56;20.80;;;12.40;;
58918;SDS011;44704;50.122;19.932;2022-11-15T08:12:42;23.10;;;13.40;;
58918;SDS011;44704;50.122;19.932;2022-11-15T08:15:28;31.20;;;14.30;;
58918;SDS011;44704;50.122;19.932;2022-11-15T08:18:14;25.80;;;14.20;;
58918;SDS011;44704;50.122;19.932;2022-11-15T08:21:01;20.40;;;12.90;;
58918;SDS011;44704;50.122;19.932;2022-11-15T08:23:47;21.60;;;12.80;;
58918;SDS011;44704;50.122;19.932;2022-11-15T08:26:33;26.40;;;14.10;;
58918;SDS011;44704;50.122;19.932;2022-11-15T08:29:20;26.10;;;14.60;;
58918;SDS011;44704;50.122;19.932;2022-11-15T08:32:06;24.90;;;13.80;;
58918;SDS011;44704;50.122;19.932;2022-11-15T08:34:53;26.50;;;14.50;;
58918;SDS011;44704;50.122;19.932;2022-11-15T08:37:39;25.50;;;14.10;;
58918;SDS011;44704;50.122;19.932;2022-11-15T08:40:24;29.00;;;16.10;;
58918;SDS011;44704;50.122;19.932;2022-11-15T08:43:12;32.50;;;16.40;;
58918;SDS011;44704;50.122;19.932;2022-11-15T08:45:57;29.00;;;15.40;;
58918;SDS011;44704;50.122;19.932;2022-11-15T08:48:43;30.70;;;16.50;;
58918;SDS011;44704;50.122;19.932;2022-11-15T08:51:29;31.50;;;16.30;;
58918;SDS011;44704;50.122;19.932;2022-11-15T08:54:15;33.80;;;16.60;;
58918;SDS011;44704;50.122;19.932;2022-11-15T08:57:00;35.00;;;18.10;;
58918;SDS011;44704;50.122;19.932;2022-11-15T08:59:46;34.90;;;17.60;;
58918;SDS011;44704;50.122;19.932;2022-11-15T09:02:32;31.80;;;17.10;;
58918;SDS011;44704;50.122;19.932;2022-11-15T09:05:17;33.20;;;16.40;;
58918;SDS011;44704;50.122;19.932;2022-11-15T09:08:04;35.40;;;18.70;;
58918;SDS011;44704;50.122;19.932;2022-11-15T09:10:50;40.70;;;20.10;;
58918;SDS011;44704;50.122;19.932;2022-11-15T09:13:36;40.90;;;19.70;;
58918;SDS011;44704;50.122;19.932;2022-11-15T09:16:22;38.60;;;18.20;;
58918;SDS011;44704;50.122;19.932;2022-11-15T09:19:08;35.20;;;18.80;;
58918;SDS011;44704;50.122;19.932;2022-11-15T09:21:54;41.90;;;20.30;;
58918;SDS011;44704;50.122;19.932;2022-11-15T09:24:39;41.80;;;21.10;;
58918;SDS011;44704;50.122;19.932;2022-11-15T09:27:28;36.70;;;18.40;;
58918;SDS011;44704;50.122;19.932;2022-11-15T09:30:15;38.40;;;19.10;;
58918;SDS011;44704;50.122;19.932;2022-11-15T09:33:08;34.80;;;19.10;;
58918;SDS011;44704;50.122;19.932;2022-11-15T09:35:59;38.80;;;20.70;;
58918;SDS011;44704;50.122;19.932;2022-11-15T09:38:47;40.80;;;20.40;;
58918;SDS011;44704;50.122;19.932;2022-11-15T09:41:38;38.00;;;19.50;;
58918;SDS011;44704;50.122;19.932;2022-11-15T09:44:49;40.60;;;21.00;;
58918;SDS011;44704;50.122;19.932;2022-11-15T09:50:40;38.80;;;19.80;;
58918;SDS011;44704;50.122;19.932;2022-11-15T09:56:09;42.00;;;21.80;;
58918;SDS011;44704;50.122;19.932;2022-11-15T09:58:53;43.70;;;22.30;;
58918;SDS011;44704;50.122;19.932;2022-11-15T10:01:36;42.80;;;22.80;;
58918;SDS011;44704;50.122;19.932;2022-11-15T10:04:11;47.80;;;23.50;;
58918;SDS011;44704;50.122;19.932;2022-11-15T10:06:40;44.50;;;22.30;;
58918;SDS011;44704;50.122;19.932;2022-11-15T10:09:15;39.60;;;22.70;;
58918;SDS011;44704;50.122;19.932;2022-11-15T10:11:46;39.60;;;21.30;;
58918;SDS011;44704;50.122;19.932;2022-11-15T10:14:23;38.40;;;20.00;;
58918;SDS011;44704;50.122;19.932;2022-11-15T10:17:06;37.10;;;19.70;;
58918;SDS011;44704;50.122;19.932;2022-11-15T10:24:45;40.40;;;21.80;;
58918;SDS011;44704;50.122;19.932;2022-11-15T10:27:15;37.70;;;21.40;;
58918;SDS011;44704;50.122;19.932;2022-11-15T10:29:44;39.60;;;21.10;;
58918;SDS011;44704;50.122;19.932;2022-11-15T10:32:17;41.20;;;21.70;;
58918;SDS011;44704;50.122;19.932;2022-11-15T10:34:46;40.70;;;22.00;;
58918;SDS011;44704;50.122;19.932;2022-11-15T10:37:14;42.90;;;22.90;;
58918;SDS011;44704;50.122;19.932;2022-11-15T10:42:41;37.90;;;22.20;;
58918;SDS011;44704;50.122;19.932;2022-11-15T10:50:42;35.00;;;21.30;;
58918;SDS011;44704;50.122;19.932;2022-11-15T10:53:24;33.10;;;20.50;;
58918;SDS011;44704;50.122;19.932;2022-11-15T10:55:56;40.00;;;22.20;;
58918;SDS011;44704;50.122;19.932;2022-11-15T11:04:05;35.60;;;21.10;;
58918;SDS011;44704;50.122;19.932;2022-11-15T11:12:11;32.00;;;20.00;;
58918;SDS011;44704;50.122;19.932;2022-11-15T11:14:38;32.50;;;19.40;;
58918;SDS011;44704;50.122;19.932;2022-11-15T11:26:05;30.90;;;18.90;;
58918;SDS011;44704;50.122;19.932;2022-11-15T11:31:37;34.90;;;21.60;;
58918;SDS011;44704;50.122;19.932;2022-11-15T11:34:17;34.20;;;22.20;;
58918;SDS011;44704;50.122;19.932;2022-11-15T11:37:45;35.10;;;19.80;;
58918;SDS011;44704;50.122;19.932;2022-11-15T11:48:14;33.50;;;21.20;;
58918;SDS011;44704;50.122;19.932;2022-11-15T11:51:15;36.90;;;22.80;;
58918;SDS011;44704;50.122;19.932;2022-11-15T11:54:03;36.80;;;21.20;;
58918;SDS011;44704;50.122;19.932;2022-11-15T11:56:39;36.20;;;20.60;;
58918;SDS011;44704;50.122;19.932;2022-11-15T12:01:46;33.50;;;19.70;;
58918;SDS011;44704;50.122;19.932;2022-11-15T12:06:59;32.50;;;18.80;;
58918;SDS011;44704;50.122;19.932;2022-11-15T12:15:21;30.90;;;20.30;;
58918;SDS011;44704;50.122;19.932;2022-11-15T12:17:53;34.50;;;19.20;;
58918;SDS011;44704;50.122;19.932;2022-11-15T12:20:23;30.50;;;19.00;;
58918;SDS011;44704;50.122;19.932;2022-11-15T12:23:06;33.00;;;19.00;;
58918;SDS011;44704;50.122;19.932;2022-11-15T12:25:58;29.70;;;19.90;;
58918;SDS011;44704;50.122;19.932;2022-11-15T12:28:38;33.00;;;19.20;;
58918;SDS011;44704;50.122;19.932;2022-11-15T12:31:19;34.50;;;20.20;;
58918;SDS011;44704;50.122;19.932;2022-11-15T12:33:54;31.30;;;20.20;;
58918;SDS011;44704;50.122;19.932;2022-11-15T12:38:57;32.20;;;19.80;;
58918;SDS011;44704;50.122;19.932;2022-11-15T12:41:32;37.40;;;22.20;;
58918;SDS011;44704;50.122;19.932;2022-11-15T12:44:02;37.00;;;23.20;;
58918;SDS011;44704;50.122;19.932;2022-11-15T12:49:11;38.50;;;21.80;;
58918;SDS011;44704;50.122;19.932;2022-11-15T13:02:18;39.70;;;22.10;;
58918;SDS011;44704;50.122;19.932;2022-11-15T13:04:48;37.00;;;22.40;;
58918;SDS011;44704;50.122;19.932;2022-11-15T13:17:39;45.90;;;25.90;;
58918;SDS011;44704;50.122;19.932;2022-11-15T13:28:11;44.50;;;27.10;;
58918;SDS011;44704;50.122;19.932;2022-11-15T13:33:17;47.30;;;25.20;;
58918;SDS011;44704;50.122;19.932;2022-11-15T13:35:52;44.10;;;24.50;;
58918;SDS011;44704;50.122;19.932;2022-11-15T13:40:51;47.30;;;26.50;;
58918;SDS011;44704;50.122;19.932;2022-11-15T13:43:29;42.90;;;26.30;;
58918;SDS011;44704;50.122;19.932;2022-11-15T13:46:04;49.40;;;26.50;;
58918;SDS011;44704;50.122;19.932;2022-11-15T13:48:45;46.80;;;26.30;;
58918;SDS011;44704;50.122;19.932;2022-11-15T13:51:21;49.20;;;26.60;;
58918;SDS011;44704;50.122;19.932;2022-11-15T13:56:44;51.90;;;28.00;;
58918;SDS011;44704;50.122;19.932;2022-11-15T13:59:18;49.50;;;27.10;;
58918;SDS011;44704;50.122;19.932;2022-11-15T14:01:47;46.90;;;26.60;;
58918;SDS011;44704;50.122;19.932;2022-11-15T14:04:19;51.20;;;28.00;;
58918;SDS011;44704;50.122;19.932;2022-11-15T14:06:49;49.80;;;27.20;;
58918;SDS011;44704;50.122;19.932;2022-11-15T14:11:56;44.90;;;25.80;;
58918;SDS011;44704;50.122;19.932;2022-11-15T14:14:24;46.50;;;26.90;;
58918;SDS011;44704;50.122;19.932;2022-11-15T14:16:54;47.50;;;26.70;;
58918;SDS011;44704;50.122;19.932;2022-11-15T14:24:38;48.00;;;25.20;;
58918;SDS011;44704;50.122;19.932;2022-11-15T14:27:20;49.00;;;26.70;;
58918;SDS011;44704;50.122;19.932;2022-11-15T14:29:50;46.40;;;26.30;;
58918;SDS011;44704;50.122;19.932;2022-11-15T14:34:48;45.70;;;26.00;;
58918;SDS011;44704;50.122;19.932;2022-11-15T14:37:22;46.60;;;25.90;;
58918;SDS011;44704;50.122;19.932;2022-11-15T14:39:54;49.10;;;28.10;;
58918;SDS011;44704;50.122;19.932;2022-11-15T14:42:23;45.40;;;26.30;;
58918;SDS011;44704;50.122;19.932;2022-11-15T14:44:50;46.30;;;28.80;;
58918;SDS011;44704;50.122;19.932;2022-11-15T14:47:18;48.20;;;27.20;;
58918;SDS011;44704;50.122;19.932;2022-11-15T14:49:45;50.90;;;27.60;;
58918;SDS011;44704;50.122;19.932;2022-11-15T14:55:04;45.50;;;25.90;;
58918;SDS011;44704;50.122;19.932;2022-11-15T15:00:09;40.00;;;23.50;;
58918;SDS011;44704;50.122;19.932;2022-11-15T15:02:40;43.70;;;24.80;;
58918;SDS011;44704;50.122;19.932;2022-11-15T15:05:21;44.60;;;24.40;;
58918;SDS011;44704;50.122;19.932;2022-11-15T15:07:50;43.40;;;24.30;;
58918;SDS011;44704;50.122;19.932;2022-11-15T15:10:21;44.20;;;23.70;;
58918;SDS011;44704;50.122;19.932;2022-11-15T15:12:48;42.90;;;23.90;;
58918;SDS011;44704;50.122;19.932;2022-11-15T15:15:16;40.80;;;23.20;;
58918;SDS011;44704;50.122;19.932;2022-11-15T15:17:48;46.50;;;23.90;;
58918;SDS011;44704;50.122;19.932;2022-11-15T15:20:15;46.10;;;24.20;;
58918;SDS011;44704;50.122;19.932;2022-11-15T15:22:44;39.90;;;23.50;;
58918;SDS011;44704;50.122;19.932;2022-11-15T15:25:18;41.10;;;24.20;;
58918;SDS011;44704;50.122;19.932;2022-11-15T15:27:46;43.80;;;23.60;;
58918;SDS011;44704;50.122;19.932;2022-11-15T15:30:13;43.10;;;24.60;;
58918;SDS011;44704;50.122;19.932;2022-11-15T15:32:40;47.50;;;25.00;;
58918;SDS011;44704;50.122;19.932;2022-11-15T15:35:07;48.50;;;25.00;;
58918;SDS011;44704;50.122;19.932;2022-11-15T15:37:37;45.60;;;25.50;;
58918;SDS011;44704;50.122;19.932;2022-11-15T15:40:08;50.20;;;27.60;;
58918;SDS011;44704;50.122;19.932;2022-11-15T15:42:39;51.80;;;28.40;;
58918;SDS011;44704;50.122;19.932;2022-11-15T15:45:07;54.50;;;28.40;;
58918;SDS011;44704;50.122;19.932;2022-11-15T15:50:03;56.90;;;29.70;;
58918;SDS011;44704;50.122;19.932;2022-11-15T15:52:38;56.10;;;29.20;;
58918;SDS011;44704;50.122;19.932;2022-11-15T15:55:06;56.30;;;28.90;;
58918;SDS011;44704;50.122;19.932;2022-11-15T15:57:33;57.80;;;27.80;;
58918;SDS011;44704;50.122;19.932;2022-11-15T16:00:00;51.50;;;25.40;;
58918;SDS011;44704;50.122;19.932;2022-11-15T16:02:27;51.60;;;27.10;;
58918;SDS011;44704;50.122;19.932;2022-11-15T16:04:54;47.70;;;25.50;;
58918;SDS011;44704;50.122;19.932;2022-11-15T16:07:21;51.20;;;27.80;;
58918;SDS011;44704;50.122;19.932;2022-11-15T16:09:50;61.60;;;31.80;;
58918;SDS011;44704;50.122;19.932;2022-11-15T16:12:30;71.60;;;34.50;;
58918;SDS011;44704;50.122;19.932;2022-11-15T16:17:26;80.70;;;41.50;;
58918;SDS011;44704;50.122;19.932;2022-11-15T16:19:58;81.60;;;40.30;;
58918;SDS011;44704;50.122;19.932;2022-11-15T16:22:25;82.20;;;42.40;;
58918;SDS011;44704;50.122;19.932;2022-11-15T16:24:52;85.70;;;45.20;;
58918;SDS011;44704;50.122;19.932;2022-11-15T16:27:19;93.10;;;46.00;;
58918;SDS011;44704;50.122;19.932;2022-11-15T16:29:47;77.10;;;40.70;;
58918;SDS011;44704;50.122;19.932;2022-11-15T16:32:15;78.00;;;41.80;;
58918;SDS011;44704;50.122;19.932;2022-11-15T16:34:42;75.40;;;41.40;;
58918;SDS011;44704;50.122;19.932;2022-11-15T16:37:21;78.70;;;41.50;;
58918;SDS011;44704;50.122;19.932;2022-11-15T16:39:49;70.70;;;40.60;;
58918;SDS011;44704;50.122;19.932;2022-11-15T16:42:16;79.20;;;42.20;;
58918;SDS011;44704;50.122;19.932;2022-11-15T16:44:43;73.20;;;40.90;;
58918;SDS011;44704;50.122;19.932;2022-11-15T16:47:15;49.20;;;26.50;;
58918;SDS011;44704;50.122;19.932;2022-11-15T16:49:45;70.20;;;40.60;;
58918;SDS011;44704;50.122;19.932;2022-11-15T16:52:12;77.30;;;41.90;;
58918;SDS011;44704;50.122;19.932;2022-11-15T16:54:40;66.60;;;39.10;;
58918;SDS011;44704;50.122;19.932;2022-11-15T16:57:08;65.90;;;39.80;;
58918;SDS011;44704;50.122;19.932;2022-11-15T16:59:37;71.70;;;40.10;;
58918;SDS011;44704;50.122;19.932;2022-11-15T17:02:07;73.90;;;38.50;;
58918;SDS011;44704;50.122;19.932;2022-11-15T17:04:37;67.70;;;38.60;;
58918;SDS011;44704;50.122;19.932;2022-11-15T17:07:04;69.10;;;39.20;;
58918;SDS011;44704;50.122;19.932;2022-11-15T17:09:32;68.50;;;39.80;;
58918;SDS011;44704;50.122;19.932;2022-11-15T17:12:00;71.70;;;40.50;;
58918;SDS011;44704;50.122;19.932;2022-11-15T17:14:27;71.30;;;41.90;;
58918;SDS011;44704;50.122;19.932;2022-11-15T17:16:54;77.20;;;43.70;;
58918;SDS011;44704;50.122;19.932;2022-11-15T17:19:21;80.20;;;44.30;;
58918;SDS011;44704;50.122;19.932;2022-11-15T17:21:48;72.80;;;41.00;;
58918;SDS011;44704;50.122;19.932;2022-11-15T17:24:15;79.70;;;43.50;;
58918;SDS011;44704;50.122;19.932;2022-11-15T17:26:42;78.90;;;44.10;;
58918;SDS011;44704;50.122;19.932;2022-11-15T17:29:10;78.10;;;44.40;;
58918;SDS011;44704;50.122;19.932;2022-11-15T17:31:37;77.40;;;42.80;;
58918;SDS011;44704;50.122;19.932;2022-11-15T17:34:05;76.00;;;44.60;;
58918;SDS011;44704;50.122;19.932;2022-11-15T17:36:33;79.60;;;44.10;;
58918;SDS011;44704;50.122;19.932;2022-11-15T17:39:01;79.90;;;46.50;;
58918;SDS011;44704;50.122;19.932;2022-11-15T17:41:30;76.80;;;44.60;;
58918;SDS011;44704;50.122;19.932;2022-11-15T17:43:57;88.20;;;48.90;;
58918;SDS011;44704;50.122;19.932;2022-11-15T17:46:25;94.80;;;52.80;;
58918;SDS011;44704;50.122;19.932;2022-11-15T17:48:54;92.90;;;54.10;;
58918;SDS011;44704;50.122;19.932;2022-11-15T17:51:22;98.00;;;54.30;;
58918;SDS011;44704;50.122;19.932;2022-11-15T17:53:50;97.20;;;55.80;;
58918;SDS011;44704;50.122;19.932;2022-11-15T17:56:19;103.30;;;60.10;;
58918;SDS011;44704;50.122;19.932;2022-11-15T18:03:54;105.10;;;60.40;;
58918;SDS011;44704;50.122;19.932;2022-11-15T18:06:22;104.90;;;60.70;;
58918;SDS011;44704;50.122;19.932;2022-11-15T18:08:51;107.90;;;60.20;;
58918;SDS011;44704;50.122;19.932;2022-11-15T18:11:20;106.00;;;58.00;;